Time;durP1;ratioP1;P1;durP2;ratioP2;P2;SDS_P1;SDS_P2;PMS_P1;PMS_P2;Temp;Humidity;BMP_temperature;BMP_pressure;BME280_temperature;BME280_humidity;BME280_pressure;Samples;Min_cycle;Max_cycle;Signal;HPM_P1;HPM_P2
2021/04/25 00:01:13;;;;;;;33.33;17.60;;;4.80;97.30;;;;;;4938218;29;20179;-85
2021/04/25 00:03:39;;;;;;;43.70;20.57;;;4.80;97.30;;;;;;4955670;28;20187;-86
2021/04/25 00:06:05;;;;;;;40.77;22.50;;;4.70;97.30;;;;;;4937969;29;20211;-85
2021/04/25 00:08:31;;;;;;;49.37;25.90;;;4.70;97.30;;;;;;4938380;28;20962;-86
2021/04/25 00:10:58;;;;;;;43.10;25.10;;;4.80;97.30;;;;;;4938146;29;20450;-86
2021/04/25 00:13:24;;;;;;;43.03;23.37;;;4.80;97.30;;;;;;4937498;29;20449;-86
2021/04/25 00:15:50;;;;;;;37.80;21.67;;;4.80;97.30;;;;;;4955016;28;20461;-85
2021/04/25 00:18:16;;;;;;;43.37;22.67;;;4.80;97.30;;;;;;4938789;29;20481;-85
2021/04/25 00:20:41;;;;;;;44.87;24.20;;;4.80;97.30;;;;;;4938634;29;20179;-85
2021/04/25 00:23:07;;;;;;;46.20;24.97;;;4.70;97.30;;;;;;4938497;29;20183;-85
2021/04/25 00:25:32;;;;;;;42.10;22.50;;;4.70;97.30;;;;;;4938331;29;20693;-85
2021/04/25 00:27:58;;;;;;;39.20;22.63;;;4.60;97.30;;;;;;4938204;29;20182;-85
2021/04/25 00:30:24;;;;;;;30.50;18.33;;;4.50;97.30;;;;;;4938715;29;20183;-85
2021/04/25 00:32:50;;;;;;;35.03;20.83;;;4.50;97.30;;;;;;4938032;29;20418;-84
2021/04/25 00:35:18;;;;;;;35.97;19.93;;;4.40;97.30;;;;;;4939994;29;20262;-85
2021/04/25 00:37:44;;;;;;;39.63;21.43;;;4.40;97.30;;;;;;4940633;28;20211;-85
2021/04/25 00:40:12;;;;;;;45.20;23.87;;;4.40;97.30;;;;;;4940609;29;20518;-85
2021/04/25 00:42:38;;;;;;;37.13;20.30;;;4.30;97.30;;;;;;4940637;29;20429;-85
2021/04/25 00:45:07;;;;;;;36.00;21.40;;;4.30;97.30;;;;;;4940694;29;20455;-85
2021/04/25 00:47:33;;;;;;;41.67;22.27;;;4.20;97.30;;;;;;4940927;29;20482;-85
2021/04/25 00:49:59;;;;;;;37.73;20.93;;;4.20;97.30;;;;;;4945267;29;20421;-85
2021/04/25 00:52:26;;;;;;;34.30;21.33;;;4.20;97.30;;;;;;4949074;29;20179;-85
2021/04/25 00:54:51;;;;;;;38.93;23.70;;;4.20;97.30;;;;;;4943097;29;20521;-85
2021/04/25 00:57:18;;;;;;;48.63;22.27;;;4.20;97.30;;;;;;4941228;29;20482;-85
2021/04/25 00:59:43;;;;;;;37.80;21.90;;;4.20;97.30;;;;;;4941317;29;20195;-85
2021/04/25 01:02:10;;;;;;;36.20;19.17;;;4.20;97.30;;;;;;4945938;29;20422;-86
2021/04/25 01:04:36;;;;;;;34.70;19.37;;;4.30;97.30;;;;;;4950135;29;20693;-85
2021/04/25 01:07:03;;;;;;;26.83;16.03;;;4.30;97.30;;;;;;4968020;28;20485;-85
2021/04/25 01:09:30;;;;;;;35.90;18.53;;;4.30;97.30;;;;;;4942097;29;20996;-85
2021/04/25 01:11:56;;;;;;;31.83;17.77;;;4.40;97.30;;;;;;4942317;29;20478;-85
2021/04/25 01:14:22;;;;;;;31.63;17.47;;;4.40;97.30;;;;;;4942439;29;20419;-85
2021/04/25 01:16:48;;;;;;;34.13;18.10;;;4.30;97.30;;;;;;4942200;29;20450;-85
2021/04/25 01:19:14;;;;;;;29.70;17.93;;;4.30;97.30;;;;;;4942287;29;20423;-85
2021/04/25 01:21:40;;;;;;;30.60;17.57;;;4.30;97.30;;;;;;4941757;29;20423;-85
2021/04/25 01:24:06;;;;;;;37.37;18.97;;;4.40;97.30;;;;;;4958263;29;20187;-85
2021/04/25 01:26:32;;;;;;;34.07;17.80;;;4.40;97.30;;;;;;4940935;29;20206;-85
2021/04/25 01:28:57;;;;;;;34.07;17.80;;;4.50;97.30;;;;;;4940992;29;20415;-85
2021/04/25 01:31:23;;;;;;;37.60;17.00;;;4.50;97.30;;;;;;4940898;29;20601;-85
2021/04/25 01:33:49;;;;;;;29.00;17.37;;;4.50;97.30;;;;;;4940573;29;20176;-85
2021/04/25 01:36:14;;;;;;;29.47;16.33;;;4.50;97.30;;;;;;4957916;29;20202;-85
2021/04/25 01:38:40;;;;;;;26.23;14.57;;;4.60;97.30;;;;;;4940954;29;20662;-85
2021/04/25 01:41:05;;;;;;;27.17;14.90;;;4.60;97.30;;;;;;4941054;29;20187;-85
2021/04/25 01:43:31;;;;;;;25.63;15.07;;;4.60;97.30;;;;;;4940306;29;20190;-85
2021/04/25 01:45:57;;;;;;;24.17;13.60;;;4.60;97.30;;;;;;4938484;28;20278;-85
2021/04/25 01:48:22;;;;;;;26.40;13.67;;;4.60;97.30;;;;;;4955479;29;20191;-85
2021/04/25 01:50:48;;;;;;;29.57;15.27;;;4.70;97.30;;;;;;4939693;29;20179;-85
2021/04/25 01:53:16;;;;;;;26.20;14.43;;;4.70;97.30;;;;;;4956770;29;20261;-85
2021/04/25 01:55:42;;;;;;;36.47;16.50;;;4.70;97.30;;;;;;4956643;29;20789;-85
2021/04/25 01:58:10;;;;;;;31.83;13.93;;;4.70;97.30;;;;;;4938163;29;20427;-85
2021/04/25 02:00:45;;;;;;;26.33;13.30;;;4.70;97.30;;;;;;4938166;29;20419;-86
2021/04/25 02:03:12;;;;;;;24.47;12.60;;;4.70;97.30;;;;;;4938991;29;20425;-85
2021/04/25 02:05:38;;;;;;;27.97;14.53;;;4.60;97.30;;;;;;4939584;29;20973;-85
2021/04/25 02:08:06;;;;;;;29.33;14.43;;;4.50;97.30;;;;;;4953979;28;20474;-85
2021/04/25 02:10:32;;;;;;;28.30;15.93;;;4.40;97.30;;;;;;4937934;29;20422;-87
2021/04/25 02:12:58;;;;;;;29.70;15.17;;;4.50;97.30;;;;;;4939162;29;20419;-85
2021/04/25 02:15:28;;;;;;;27.87;15.00;;;4.50;97.30;;;;;;4955411;29;20423;-85
2021/04/25 02:17:53;;;;;;;27.00;14.90;;;4.50;97.30;;;;;;4940163;29;20226;-85
2021/04/25 02:20:21;;;;;;;26.00;15.57;;;4.60;97.30;;;;;;4940991;29;20423;-85
2021/04/25 02:22:47;;;;;;;29.67;14.73;;;4.60;97.30;;;;;;4940898;29;20191;-85
2021/04/25 02:25:14;;;;;;;32.30;16.57;;;4.50;97.30;;;;;;4941136;29;20473;-85
2021/04/25 02:27:40;;;;;;;26.77;14.63;;;4.50;97.30;;;;;;4940892;29;20450;-85
2021/04/25 02:30:10;;;;;;;29.53;15.83;;;4.50;97.30;;;;;;4940979;28;20949;-85
2021/04/25 02:32:36;;;;;;;25.00;14.83;;;4.50;97.30;;;;;;4940582;29;20179;-84
2021/04/25 02:35:02;;;;;;;30.80;14.93;;;4.50;97.30;;;;;;4945040;28;20504;-85
2021/04/25 02:37:28;;;;;;;29.77;14.70;;;4.50;97.30;;;;;;4957605;28;20442;-86
2021/04/25 02:39:53;;;;;;;24.13;15.80;;;4.40;97.30;;;;;;4957518;28;20418;-86
2021/04/25 02:42:19;;;;;;;28.20;16.17;;;4.40;97.30;;;;;;4958193;28;20183;-85
2021/04/25 02:44:47;;;;;;;33.23;15.83;;;4.40;97.30;;;;;;4957075;28;20213;-86
2021/04/25 02:47:12;;;;;;;31.83;16.80;;;4.50;97.30;;;;;;4956683;28;20325;-85
2021/04/25 02:49:38;;;;;;;31.70;17.07;;;4.50;97.30;;;;;;4956732;28;20477;-86
2021/04/25 02:52:04;;;;;;;29.77;16.43;;;4.50;97.30;;;;;;4958166;28;20236;-85
2021/04/25 02:54:29;;;;;;;30.43;16.20;;;4.40;97.30;;;;;;4957990;28;20187;-85
2021/04/25 02:56:55;;;;;;;26.23;16.03;;;4.40;97.30;;;;;;4974676;28;20250;-85
2021/04/25 02:59:21;;;;;;;29.97;16.03;;;4.40;97.30;;;;;;4957443;28;20645;-85
2021/04/25 03:01:47;;;;;;;28.80;17.57;;;4.40;97.30;;;;;;4957428;28;20432;-85
2021/04/25 03:04:12;;;;;;;32.23;16.67;;;4.40;97.30;;;;;;4957399;28;20183;-85
2021/04/25 03:06:38;;;;;;;28.23;16.27;;;4.40;97.30;;;;;;4957206;28;20202;-85
2021/04/25 03:09:04;;;;;;;32.33;15.73;;;4.40;97.30;;;;;;4957625;28;20641;-85
2021/04/25 03:11:29;;;;;;;24.30;14.50;;;4.50;97.30;;;;;;4957394;28;20641;-85
2021/04/25 03:13:55;;;;;;;26.40;16.37;;;4.50;97.30;;;;;;4957396;28;20672;-85
2021/04/25 03:16:21;;;;;;;31.53;17.10;;;4.50;97.30;;;;;;4957620;28;20708;-85
2021/04/25 03:18:46;;;;;;;33.97;16.33;;;4.50;97.30;;;;;;4973783;28;20185;-85
2021/04/25 03:21:12;;;;;;;29.93;15.63;;;4.50;97.30;;;;;;4957491;28;20608;-85
2021/04/25 03:23:37;;;;;;;30.80;16.50;;;4.60;97.30;;;;;;4958018;28;20178;-85
2021/04/25 03:26:03;;;;;;;26.30;15.50;;;4.60;97.30;;;;;;4958270;28;20559;-86
2021/04/25 03:28:29;;;;;;;29.80;15.73;;;4.50;97.30;;;;;;4959411;28;20198;-84
2021/04/25 03:30:55;;;;;;;35.17;15.83;;;4.50;97.30;;;;;;4959034;28;20429;-85
2021/04/25 03:33:22;;;;;;;32.00;14.97;;;4.50;97.30;;;;;;4959152;28;20851;-86
2021/04/25 03:35:48;;;;;;;24.90;14.63;;;4.50;97.30;;;;;;4959082;28;20194;-85
2021/04/25 03:38:14;;;;;;;28.23;14.33;;;4.50;97.30;;;;;;4959457;28;20509;-85
2021/04/25 03:40:40;;;;;;;32.70;14.53;;;4.50;97.30;;;;;;4958492;28;20422;-85
2021/04/25 03:43:05;;;;;;;24.80;13.97;;;4.50;97.30;;;;;;4975501;28;20464;-86
2021/04/25 03:45:31;;;;;;;23.83;13.00;;;4.40;97.30;;;;;;4975705;28;20646;-85
2021/04/25 03:47:57;;;;;;;21.73;12.40;;;4.50;97.30;;;;;;4950613;23;20238;-86
2021/04/25 03:50:24;;;;;;;27.00;11.77;;;4.50;97.30;;;;;;4920054;29;20188;-87
2021/04/25 03:52:50;;;;;;;26.70;13.03;;;4.50;97.30;;;;;;4920253;29;20180;-88
2021/04/25 03:55:18;;;;;;;25.17;14.27;;;4.60;97.30;;;;;;4920006;29;20790;-87
2021/04/25 03:57:44;;;;;;;22.03;11.37;;;4.60;97.30;;;;;;4919781;29;20995;-87
2021/04/25 04:00:12;;;;;;;22.20;11.63;;;4.60;97.30;;;;;;4919659;29;20447;-86
2021/04/25 04:02:38;;;;;;;18.50;11.03;;;4.60;97.30;;;;;;4918917;29;20519;-87
2021/04/25 04:05:04;;;;;;;21.80;10.90;;;4.60;97.30;;;;;;4918822;29;20519;-86
2021/04/25 04:07:30;;;;;;;20.10;11.17;;;4.60;97.30;;;;;;4918869;29;20714;-87
2021/04/25 04:09:58;;;;;;;19.60;10.20;;;4.60;97.30;;;;;;4921492;29;20420;-86
2021/04/25 04:12:24;;;;;;;24.70;10.97;;;4.60;97.30;;;;;;4922778;29;20180;-87
2021/04/25 04:14:50;;;;;;;17.40;10.53;;;4.60;97.30;;;;;;4923407;29;20571;-87
2021/04/25 04:17:16;;;;;;;16.70;9.73;;;4.60;97.30;;;;;;4923359;29;20238;-87
2021/04/25 04:19:42;;;;;;;18.50;9.73;;;4.70;97.30;;;;;;4923340;29;20424;-86
2021/04/25 04:22:08;;;;;;;17.60;8.43;;;4.70;97.30;;;;;;4923398;29;20427;-86
2021/04/25 04:24:34;;;;;;;14.07;8.93;;;4.70;97.30;;;;;;4940322;29;20283;-87
2021/04/25 04:26:59;;;;;;;13.87;8.23;;;4.80;97.30;;;;;;4940079;29;20226;-87
2021/04/25 04:29:27;;;;;;;14.23;8.00;;;4.70;97.30;;;;;;4924129;29;20183;-87
2021/04/25 04:31:53;;;;;;;15.17;9.00;;;4.70;97.30;;;;;;4924009;29;20180;-88
2021/04/25 04:34:18;;;;;;;14.67;8.70;;;4.80;97.30;;;;;;4941593;29;20412;-88
2021/04/25 04:36:44;;;;;;;20.47;9.20;;;4.80;97.30;;;;;;4923955;29;20962;-87
2021/04/25 04:39:10;;;;;;;16.37;8.23;;;4.80;97.30;;;;;;4924229;29;20200;-86
2021/04/25 04:41:35;;;;;;;16.40;8.60;;;4.80;97.30;;;;;;4924601;29;20180;-86
2021/04/25 04:44:01;;;;;;;17.37;8.70;;;4.80;97.30;;;;;;4924231;29;20195;-88
2021/04/25 04:46:27;;;;;;;14.20;8.30;;;4.80;97.30;;;;;;4940867;29;20211;-88
2021/04/25 04:48:53;;;;;;;14.57;8.17;;;4.90;97.30;;;;;;4924476;29;20176;-87
2021/04/25 04:51:18;;;;;;;19.30;8.43;;;4.90;97.30;;;;;;4924338;29;20232;-86
2021/04/25 04:53:44;;;;;;;16.43;7.47;;;4.90;97.30;;;;;;4923526;29;20555;-88
2021/04/25 04:56:09;;;;;;;15.00;7.70;;;4.90;97.30;;;;;;4923120;29;20709;-86
2021/04/25 04:58:35;;;;;;;16.93;7.73;;;5.00;97.30;;;;;;4922838;29;20172;-87
2021/04/25 05:01:01;;;;;;;16.40;7.60;;;5.00;97.30;;;;;;4922175;29;20191;-87
2021/04/25 05:03:26;;;;;;;12.37;7.10;;;5.00;97.30;;;;;;4926313;29;20207;-87
2021/04/25 05:05:52;;;;;;;11.37;7.03;;;5.00;97.30;;;;;;4922870;29;20212;-87
2021/04/25 05:08:18;;;;;;;15.07;7.27;;;4.90;97.30;;;;;;4922396;29;20199;-86
2021/04/25 05:10:44;;;;;;;12.70;7.30;;;4.90;97.30;;;;;;4924721;29;20204;-87
2021/04/25 05:13:10;;;;;;;11.50;7.00;;;4.90;97.30;;;;;;4921804;29;20431;-90
2021/04/25 05:15:40;;;;;;;21.83;7.53;;;4.80;97.30;;;;;;4920468;29;20183;-88
2021/04/25 05:18:07;;;;;;;11.17;6.50;;;4.70;97.30;;;;;;4942107;23;20501;-73
2021/04/25 05:20:33;;;;;;;17.73;7.80;;;4.60;97.30;;;;;;4934309;29;20411;-73
2021/04/25 05:23:00;;;;;;;14.47;6.77;;;4.50;97.30;;;;;;4936652;29;20855;-73
2021/04/25 05:25:26;;;;;;;14.53;6.93;;;4.40;97.30;;;;;;4935891;29;20830;-73
2021/04/25 05:27:52;;;;;;;13.23;7.10;;;4.40;97.30;;;;;;4919486;29;20432;-73
2021/04/25 05:30:19;;;;;;;13.20;5.87;;;4.40;97.30;;;;;;4936809;29;20443;-74
2021/04/25 05:32:45;;;;;;;15.10;7.50;;;4.40;97.30;;;;;;4918989;29;20259;-72
2021/04/25 05:35:12;;;;;;;14.43;6.90;;;4.40;97.30;;;;;;4919231;29;20511;-72
2021/04/25 05:37:38;;;;;;;12.07;6.33;;;4.50;97.30;;;;;;4919223;29;20516;-72
2021/04/25 05:40:10;;;;;;;12.57;6.03;;;4.50;97.30;;;;;;4917632;29;20428;-72
2021/04/25 05:42:36;;;;;;;17.47;7.13;;;4.60;97.30;;;;;;4917361;29;20436;-72
2021/04/25 05:45:02;;;;;;;12.60;6.43;;;4.70;97.30;;;;;;4917451;29;21015;-72
2021/04/25 05:47:28;;;;;;;13.37;6.30;;;4.70;97.30;;;;;;4926283;29;20780;-72
2021/04/25 05:49:53;;;;;;;12.60;6.50;;;4.80;97.30;;;;;;4936682;29;20411;-72
2021/04/25 05:52:19;;;;;;;14.40;7.23;;;4.80;97.30;;;;;;4936186;29;20238;-72
2021/04/25 05:54:45;;;;;;;12.27;7.13;;;4.90;97.30;;;;;;4936236;29;20233;-72
2021/04/25 05:57:11;;;;;;;9.50;5.90;;;5.00;97.30;;;;;;4938123;29;20471;-72
2021/04/25 05:59:36;;;;;;;12.17;6.10;;;5.10;97.30;;;;;;4937729;29;20434;-72
2021/04/25 06:02:06;;;;;;;12.23;6.60;;;5.10;97.30;;;;;;4937321;29;20227;-72
2021/04/25 06:04:32;;;;;;;19.03;7.27;;;5.20;97.30;;;;;;4938094;29;20186;-72
2021/04/25 06:06:58;;;;;;;15.30;7.73;;;5.20;97.30;;;;;;4954556;29;20407;-72
2021/04/25 06:09:24;;;;;;;14.07;6.70;;;5.30;97.30;;;;;;4954927;29;20407;-72
2021/04/25 06:11:50;;;;;;;27.00;7.73;;;5.30;97.30;;;;;;4938167;29;20984;-73
2021/04/25 06:14:16;;;;;;;14.00;6.87;;;5.40;97.30;;;;;;4954678;29;20175;-72
2021/04/25 06:16:41;;;;;;;10.83;6.37;;;5.40;97.30;;;;;;4937108;29;20227;-72
2021/04/25 06:19:07;;;;;;;9.90;6.63;;;5.40;97.30;;;;;;4954735;29;20418;-73
2021/04/25 06:21:33;;;;;;;11.57;6.03;;;5.50;97.30;;;;;;4954264;29;20195;-72
2021/04/25 06:23:59;;;;;;;10.50;5.60;;;5.50;97.30;;;;;;4936795;29;20426;-72
2021/04/25 06:26:25;;;;;;;13.17;5.87;;;5.50;97.30;;;;;;4937612;29;20206;-72
2021/04/25 06:28:51;;;;;;;9.73;5.80;;;5.50;97.30;;;;;;4953903;29;20179;-72
2021/04/25 06:31:16;;;;;;;15.17;5.43;;;5.50;97.30;;;;;;4936493;28;20227;-72
2021/04/25 06:33:44;;;;;;;12.17;4.60;;;5.40;97.30;;;;;;4954531;29;20262;-72
2021/04/25 06:36:10;;;;;;;13.27;6.20;;;5.40;97.30;;;;;;4954098;29;20167;-72
2021/04/25 06:38:36;;;;;;;15.00;5.50;;;5.40;97.30;;;;;;4937441;29;20433;-72
2021/04/25 06:41:01;;;;;;;11.43;5.93;;;5.50;97.30;;;;;;4937625;29;20297;-72
2021/04/25 06:43:27;;;;;;;10.87;5.13;;;5.50;97.30;;;;;;4954007;29;20171;-71
2021/04/25 06:45:53;;;;;;;13.97;6.37;;;5.50;97.30;;;;;;4954397;29;20195;-72
2021/04/25 06:48:19;;;;;;;10.50;5.20;;;5.60;97.30;;;;;;4937276;29;20298;-72
2021/04/25 06:50:45;;;;;;;10.23;5.00;;;5.80;97.30;;;;;;4935978;29;21098;-72
2021/04/25 06:53:11;;;;;;;11.93;4.90;;;6.00;97.30;;;;;;4953870;29;20171;-72
2021/04/25 06:55:36;;;;;;;14.00;5.20;;;6.10;97.30;;;;;;4954105;29;20175;-72
2021/04/25 06:58:02;;;;;;;21.40;5.73;;;6.10;97.30;;;;;;4953667;29;20411;-72
2021/04/25 07:00:28;;;;;;;10.47;4.80;;;6.30;97.30;;;;;;4936849;29;20639;-72
2021/04/25 07:02:55;;;;;;;11.60;4.80;;;6.50;97.30;;;;;;4936850;29;20183;-72
2021/04/25 07:05:21;;;;;;;11.07;4.57;;;6.70;97.30;;;;;;4936436;29;20218;-72
2021/04/25 07:07:47;;;;;;;8.63;4.57;;;6.80;97.30;;;;;;4953551;29;20880;-72
2021/04/25 07:10:13;;;;;;;7.80;4.50;;;6.70;97.30;;;;;;4953735;29;20506;-72
2021/04/25 07:12:39;;;;;;;9.70;4.60;;;6.60;97.30;;;;;;4953041;29;20207;-72
2021/04/25 07:15:07;;;;;;;8.90;4.50;;;6.60;97.30;;;;;;4936912;29;20274;-72
2021/04/25 07:17:32;;;;;;;7.60;4.60;;;6.70;97.30;;;;;;4936189;29;20474;-71
2021/04/25 07:19:59;;;;;;;9.37;4.90;;;6.80;97.30;;;;;;4953192;29;20466;-72
2021/04/25 07:22:24;;;;;;;9.03;4.80;;;6.80;97.30;;;;;;4953983;29;20523;-72
2021/04/25 07:24:50;;;;;;;12.93;5.47;;;6.80;97.30;;;;;;4953341;29;20509;-72
2021/04/25 07:27:20;;;;;;;13.43;6.17;;;6.80;97.30;;;;;;4936147;29;20250;-73
2021/04/25 07:29:47;;;;;;;13.40;6.57;;;7.00;97.30;;;;;;4936089;29;20180;-72
2021/04/25 07:32:13;;;;;;;11.63;6.07;;;7.10;97.30;;;;;;4935860;29;20435;-71
2021/04/25 07:34:39;;;;;;;16.73;5.60;;;7.30;97.30;;;;;;4935731;29;20414;-72
2021/04/25 07:37:05;;;;;;;9.67;5.00;;;7.40;97.30;;;;;;4936327;29;20574;-72
2021/04/25 07:39:35;;;;;;;9.30;5.70;;;7.40;97.30;;;;;;4935573;29;20190;-71
2021/04/25 07:42:02;;;;;;;9.17;4.80;;;7.40;97.30;;;;;;4952782;28;20965;-73
2021/04/25 07:44:27;;;;;;;11.60;4.80;;;7.30;97.30;;;;;;4953058;28;20410;-71
2021/04/25 07:46:53;;;;;;;11.47;5.60;;;7.30;97.30;;;;;;4930724;29;20510;-71
2021/04/25 07:49:19;;;;;;;12.83;4.37;;;7.50;97.30;;;;;;4933559;29;20211;-71
2021/04/25 07:51:45;;;;;;;11.07;5.73;;;7.50;97.30;;;;;;4934026;29;20464;-71
2021/04/25 07:54:11;;;;;;;11.13;5.00;;;7.70;97.00;;;;;;4916634;29;20179;-72
2021/04/25 07:56:37;;;;;;;12.83;4.80;;;7.70;97.00;;;;;;4934122;29;20692;-71
2021/04/25 07:59:03;;;;;;;15.30;4.97;;;7.70;96.90;;;;;;4933961;29;20447;-71
2021/04/25 08:01:29;;;;;;;11.57;5.73;;;7.80;97.30;;;;;;4933517;29;20267;-71
2021/04/25 08:03:57;;;;;;;13.83;4.57;;;7.90;97.30;;;;;;4916795;29;20457;-71
2021/04/25 08:06:23;;;;;;;14.77;5.83;;;8.10;96.20;;;;;;4934146;29;20491;-71
2021/04/25 08:08:49;;;;;;;12.07;5.33;;;8.20;95.90;;;;;;4916163;29;21039;-71
2021/04/25 08:11:15;;;;;;;10.10;4.70;;;8.30;96.30;;;;;;4933696;29;20507;-71
2021/04/25 08:13:40;;;;;;;9.87;5.13;;;8.40;95.70;;;;;;4933795;29;20199;-71
2021/04/25 08:16:06;;;;;;;11.20;5.50;;;8.40;95.30;;;;;;4916484;29;20455;-70
2021/04/25 08:18:32;;;;;;;8.40;4.80;;;8.40;95.40;;;;;;4916238;29;20322;-72
2021/04/25 08:20:57;;;;;;;13.50;5.07;;;8.50;94.70;;;;;;4934044;29;20505;-71
2021/04/25 08:23:23;;;;;;;11.27;5.57;;;8.60;94.80;;;;;;4933492;29;20172;-72
2021/04/25 08:25:49;;;;;;;20.80;4.87;;;8.50;94.40;;;;;;4933700;29;20235;-71
2021/04/25 08:28:15;;;;;;;9.50;5.10;;;8.50;94.10;;;;;;4917046;29;20183;-72
2021/04/25 08:30:41;;;;;;;12.97;5.90;;;8.50;94.30;;;;;;4933024;29;20192;-72
2021/04/25 08:33:07;;;;;;;15.70;5.67;;;8.40;94.30;;;;;;4916854;29;20177;-73
2021/04/25 08:35:34;;;;;;;13.50;5.30;;;8.30;94.40;;;;;;4917067;29;20420;-72
2021/04/25 08:37:59;;;;;;;13.80;6.13;;;8.40;95.60;;;;;;4916042;29;20431;-73
2021/04/25 08:40:25;;;;;;;9.50;5.00;;;8.50;94.70;;;;;;4916392;29;20423;-73
2021/04/25 08:42:51;;;;;;;13.27;5.47;;;8.40;94.10;;;;;;4933561;29;20180;-72
2021/04/25 08:45:18;;;;;;;25.77;5.37;;;8.50;94.50;;;;;;4916281;29;20214;-73
2021/04/25 08:47:57;;;;;;;13.93;6.43;;;8.70;93.50;;;;;;4927692;29;20419;-73
2021/04/25 08:50:25;;;;;;;11.83;5.20;;;8.80;92.30;;;;;;4936139;29;20411;-71
2021/04/25 08:52:52;;;;;;;12.13;5.77;;;8.70;93.60;;;;;;4935752;29;20478;-72
2021/04/25 08:55:18;;;;;;;12.03;6.03;;;8.80;94.30;;;;;;4937671;29;20505;-72
2021/04/25 08:57:44;;;;;;;14.30;5.37;;;9.00;94.00;;;;;;4939112;29;20623;-72
2021/04/25 09:00:11;;;;;;;11.63;5.50;;;9.00;93.10;;;;;;4955635;29;20178;-72
2021/04/25 09:02:37;;;;;;;13.87;6.03;;;9.00;92.30;;;;;;4938874;29;20431;-71
2021/04/25 09:05:03;;;;;;;14.20;6.03;;;9.00;92.00;;;;;;4938649;29;20465;-71
2021/04/25 09:07:29;;;;;;;12.80;5.50;;;9.10;91.80;;;;;;4955773;29;20450;-71
2021/04/25 09:09:59;;;;;;;9.83;5.23;;;9.10;91.10;;;;;;4955823;28;20450;-72
2021/04/25 09:12:44;;;;;;;14.50;5.23;;;9.10;92.00;;;;;;4938704;29;20202;-72
2021/04/25 09:15:10;;;;;;;12.23;5.70;;;9.30;92.90;;;;;;4938415;29;20423;-72
2021/04/25 09:17:50;;;;;;;11.30;5.90;;;9.60;92.60;;;;;;4938675;29;20471;-71
2021/04/25 09:20:29;;;;;;;10.70;5.40;;;9.80;91.80;;;;;;4937915;29;20422;-72
2021/04/25 09:22:55;;;;;;;17.77;7.20;;;9.80;89.90;;;;;;4938504;29;20424;-72
2021/04/25 09:25:21;;;;;;;17.67;6.37;;;9.80;91.10;;;;;;4939029;29;20828;-71
2021/04/25 09:27:49;;;;;;;15.90;6.17;;;9.80;90.50;;;;;;4954974;29;20171;-72
2021/04/25 09:30:23;;;;;;;19.93;6.50;;;9.80;90.80;;;;;;4938119;29;20203;-72
2021/04/25 09:33:00;;;;;;;12.27;6.30;;;10.10;90.80;;;;;;4938747;29;20414;-73
2021/04/25 09:35:26;;;;;;;11.23;5.30;;;10.40;91.60;;;;;;4937991;29;20423;-73
2021/04/25 09:37:52;;;;;;;13.53;5.60;;;10.60;88.30;;;;;;4938276;29;20427;-71
2021/04/25 09:40:23;;;;;;;19.37;6.87;;;10.50;86.90;;;;;;4955123;29;20418;-72
2021/04/25 09:42:55;;;;;;;11.10;5.37;;;10.30;89.10;;;;;;4954841;29;20550;-73
2021/04/25 09:45:31;;;;;;;12.67;6.27;;;10.20;88.90;;;;;;4938070;29;20484;-72
2021/04/25 09:47:59;;;;;;;13.80;6.07;;;10.00;89.10;;;;;;4982740;23;20555;-77
2021/04/25 09:50:26;;;;;;;14.07;5.83;;;10.00;88.90;;;;;;4975116;28;20406;-77
2021/04/25 09:52:52;;;;;;;10.90;5.60;;;10.20;89.20;;;;;;4957205;28;20402;-78
2021/04/25 09:55:27;;;;;;;10.00;5.57;;;10.40;89.30;;;;;;4957136;28;20460;-76
2021/04/25 09:58:09;;;;;;;16.77;6.47;;;10.60;89.00;;;;;;4975101;28;20189;-76
2021/04/25 10:00:47;;;;;;;14.00;6.30;;;10.80;89.00;;;;;;4956797;28;20531;-77
2021/04/25 10:03:13;;;;;;;11.30;6.27;;;10.70;87.50;;;;;;4957150;28;20436;-77
2021/04/25 10:05:55;;;;;;;11.60;6.53;;;10.70;87.50;;;;;;4957221;28;20446;-78
2021/04/25 10:08:33;;;;;;;15.80;5.77;;;10.70;87.10;;;;;;4973158;28;20174;-77
2021/04/25 10:11:02;;;;;;;12.10;5.67;;;10.80;86.80;;;;;;4974874;28;20485;-78
2021/04/25 10:13:29;;;;;;;10.53;6.40;;;10.80;87.60;;;;;;4957118;28;20410;-78
2021/04/25 10:15:55;;;;;;;11.33;5.63;;;10.80;87.20;;;;;;4956665;28;20505;-77
2021/04/25 10:18:21;;;;;;;11.43;5.53;;;10.80;86.80;;;;;;4957092;28;20457;-78
2021/04/25 10:20:55;;;;;;;17.87;6.80;;;11.00;86.90;;;;;;4957069;28;20438;-77
2021/04/25 10:23:21;;;;;;;11.20;5.73;;;11.10;86.10;;;;;;4956890;28;20414;-79
2021/04/25 10:25:48;;;;;;;14.33;5.43;;;11.00;85.10;;;;;;4957789;28;20612;-78
2021/04/25 10:28:42;;;;;;;15.10;5.87;;;11.00;85.30;;;;;;4957125;28;20422;-79
2021/04/25 10:31:13;;;;;;;10.87;4.67;;;11.10;86.30;;;;;;4957025;28;20441;-79
2021/04/25 10:34:03;;;;;;;11.20;5.43;;;11.20;87.80;;;;;;4957637;28;20651;-77
2021/04/25 10:36:44;;;;;;;15.40;6.57;;;11.10;86.00;;;;;;4956992;28;20682;-79
2021/04/25 10:39:38;;;;;;;11.20;5.60;;;10.80;85.50;;;;;;4957272;28;20413;-79
2021/04/25 10:42:17;;;;;;;12.17;6.10;;;10.80;86.70;;;;;;4957134;28;20434;-77
2021/04/25 10:47:37;;;;;;;14.77;5.20;;;10.70;85.20;;;;;;4975318;28;20446;-78
2021/04/25 10:50:14;;;;;;;7.60;4.90;;;10.80;85.00;;;;;;4956690;28;20451;-78
2021/04/25 10:52:43;;;;;;;10.23;5.30;;;11.10;84.90;;;;;;4956629;28;20517;-82
2021/04/25 10:55:15;;;;;;;9.77;5.53;;;11.40;83.50;;;;;;4956854;28;20429;-79
2021/04/25 10:58:08;;;;;;;6.50;4.30;;;11.50;82.30;;;;;;4956130;28;20414;-80
2021/04/25 11:00:34;;;;;;;16.23;5.20;;;11.60;82.20;;;;;;4959655;28;20426;-80
2021/04/25 11:03:10;;;;;;;17.63;5.07;;;11.60;84.10;;;;;;4956146;28;20414;-79
2021/04/25 11:05:36;;;;;;;9.33;4.33;;;11.50;83.50;;;;;;4955246;28;20472;-80
2021/04/25 11:08:18;;;;;;;11.07;4.57;;;11.30;81.90;;;;;;4973634;28;20394;-77
2021/04/25 11:14:08;;;;;;;10.63;3.70;;;11.10;81.80;;;;;;4973321;28;20405;-80
2021/04/25 11:16:35;;;;;;;7.20;4.00;;;11.10;81.90;;;;;;4955985;28;20437;-80
2021/04/25 11:19:06;;;;;;;7.53;4.47;;;11.20;82.40;;;;;;4955883;28;20422;-78
2021/04/25 11:21:50;;;;;;;12.33;4.83;;;11.20;82.30;;;;;;4955369;28;20860;-79
2021/04/25 11:24:16;;;;;;;7.60;4.10;;;11.00;82.40;;;;;;4955092;28;20424;-80
2021/04/25 11:26:44;;;;;;;15.23;3.90;;;10.90;81.90;;;;;;4955918;28;20461;-78
2021/04/25 11:29:23;;;;;;;7.27;4.00;;;11.00;82.00;;;;;;4955080;28;20174;-78
2021/04/25 11:31:58;;;;;;;9.30;4.10;;;11.00;80.40;;;;;;4954564;28;20682;-80
2021/04/25 11:37:01;;;;;;;8.40;3.53;;;11.00;81.60;;;;;;4972502;28;20449;-78
2021/04/25 11:46:43;;;;;;;11.10;3.80;;;11.20;81.10;;;;;;4972858;28;20461;-81
2021/04/25 11:49:09;;;;;;;8.97;3.93;;;11.30;82.40;;;;;;4954001;28;20458;-79
2021/04/25 11:51:34;;;;;;;7.60;3.70;;;11.20;82.10;;;;;;4937487;29;20434;-79
2021/04/25 11:54:17;;;;;;;9.27;4.30;;;11.10;82.60;;;;;;4936341;29;20588;-79
2021/04/25 11:56:43;;;;;;;10.50;4.17;;;10.90;81.80;;;;;;4936993;29;20600;-79
2021/04/25 11:59:10;;;;;;;7.23;4.10;;;10.70;81.20;;;;;;4935958;29;20422;-78
2021/04/25 12:01:37;;;;;;;8.43;3.93;;;10.70;82.30;;;;;;4936543;29;20205;-81
2021/04/25 12:04:03;;;;;;;8.47;3.70;;;10.70;83.10;;;;;;4953626;29;20757;-79
2021/04/25 12:06:50;;;;;;;12.60;4.63;;;10.70;84.20;;;;;;4935943;29;20462;-80
2021/04/25 12:09:16;;;;;;;10.23;3.67;;;10.70;83.30;;;;;;4952721;29;20460;-82
2021/04/25 12:11:43;;;;;;;9.70;3.43;;;10.60;82.00;;;;;;4937060;29;20439;-79
2021/04/25 12:14:16;;;;;;;8.60;4.30;;;10.60;82.10;;;;;;4936141;29;21001;-79
2021/04/25 12:16:42;;;;;;;7.73;4.50;;;10.60;83.50;;;;;;4936227;29;20815;-80
2021/04/25 12:19:24;;;;;;;7.40;3.67;;;10.60;84.00;;;;;;4936403;29;20426;-80
2021/04/25 12:21:50;;;;;;;18.67;5.37;;;10.70;84.40;;;;;;4936531;29;20583;-79
2021/04/25 12:24:21;;;;;;;13.20;3.97;;;10.70;83.60;;;;;;4936507;29;21033;-78
2021/04/25 12:26:47;;;;;;;14.00;4.17;;;10.50;83.30;;;;;;4936313;29;20466;-82
2021/04/25 12:29:31;;;;;;;7.27;3.93;;;10.50;83.90;;;;;;4936008;28;20422;-80
2021/04/25 12:31:57;;;;;;;6.73;4.30;;;10.50;83.10;;;;;;4946548;28;20500;-80
2021/04/25 12:34:23;;;;;;;9.30;4.60;;;10.60;83.10;;;;;;4966230;28;20414;-79
2021/04/25 12:36:50;;;;;;;11.50;4.90;;;11.10;82.50;;;;;;4975048;28;20996;-81
2021/04/25 12:53:20;;;;;;;8.90;5.27;;;10.80;83.50;;;;;;4975932;28;20428;-79
2021/04/25 12:55:46;;;;;;;12.40;5.00;;;11.10;82.80;;;;;;4974181;28;20468;-78
2021/04/25 12:58:12;;;;;;;13.60;4.63;;;11.00;81.80;;;;;;4976469;28;20413;-78
2021/04/25 13:00:37;;;;;;;8.30;4.80;;;11.50;81.30;;;;;;4975578;28;20673;-78
2021/04/25 13:03:03;;;;;;;8.13;4.80;;;12.00;79.30;;;;;;4975774;28;20490;-79
2021/04/25 13:05:29;;;;;;;5.57;4.03;;;12.30;78.80;;;;;;4975168;28;20723;-79
2021/04/25 13:07:54;;;;;;;10.90;4.63;;;12.20;78.40;;;;;;4975916;28;20190;-79
2021/04/25 13:10:26;;;;;;;7.47;4.70;;;12.40;78.80;;;;;;4974150;28;20175;-78
2021/04/25 13:12:54;;;;;;;11.17;4.50;;;12.60;78.10;;;;;;4974692;28;20175;-79
2021/04/25 13:15:33;;;;;;;4.90;4.00;;;12.90;78.10;;;;;;4975177;28;20450;-78